Sichem Hawk — 9HSE9 — position and weather

sailwx.info

Track history (hours):
 
Tides and Currents Weather Stations Pressure Air Temp Water Temp Dewpoint Dewpoint Depression Visibility Wind Speed Wind Dir Waves Ship Positions

Sichem Hawk

Last reported at 2014-Dec-10 07:33 UTC. Time now 2014-Dec-22 13:29 UTC.
Position N 51°39' W 009°54'.
Warning: this ship's position is 12 days out of date.

Length 170 m; draft 7.9 m.

Type: Ship. MMSI: 249445000.

Date/timePositionNaut miles runAvg speedWind from/ knotsBaromVisibWave heightAir tempDewpointWater temp
2014-Dec-10 07:33N 51°39' W 009°54'0 0.0
2014-Dec-10 06:30N 51°39' W 009°54'0 0.0
2014-Dec-10 05:33N 51°39' W 009°54'0 0.0
2014-Dec-10 04:33N 51°39' W 009°54'0 0.0
2014-Dec-10 03:33N 51°39' W 009°54'0 0.0
2014-Dec-10 02:33N 51°39' W 009°54'0 0.0
2014-Dec-10 01:33N 51°39' W 009°54'0 0.0
2014-Dec-10 00:33N 51°39' W 009°54'0 0.0
2014-Dec-09 23:33N 51°39' W 009°54'0 0.0
2014-Dec-09 22:27N 51°39' W 009°54'0 0.0
2014-Dec-09 21:06N 51°39' W 009°54'0 0.0
2014-Dec-09 17:24N 51°39' W 009°54'2 1.7
2014-Dec-09 16:32N 51°38' W 009°55'8 8.6
2014-Dec-09 15:34N 51°34' W 010°07'5892209.0
2014-Dec-08 11:22S 33°07' W 060°30'0 0.0
2014-Dec-08 09:22S 33°07' W 060°30'0 0.0
2014-Dec-08 08:16S 33°07' W 060°30'0 0.2
2014-Dec-08 07:28S 33°07' W 060°30'0 0.3
2014-Dec-08 06:13S 33°07' W 060°31'0 0.0
2014-Dec-08 05:22S 33°07' W 060°31'0 0.0
2014-Dec-08 04:31S 33°07' W 060°31'0 0.0
2014-Dec-08 03:13S 33°07' W 060°31'0 0.0
2014-Dec-08 02:16S 33°07' W 060°31'50 2.1
2014-Dec-07 02:31S 33°37' W 059°43'7 7.5
2014-Dec-07 01:33S 33°41' W 059°35'8 6.6
2014-Dec-07 00:21S 33°44' W 059°26'911.2
2014-Dec-06 23:33S 33°43' W 059°15'7 6.6
2014-Dec-06 22:32S 33°50' W 059°13'7 7.5
2014-Dec-06 21:33S 33°54' W 059°06'9 9.1
2014-Dec-06 20:33S 33°53' W 058°55'7 7.2
2014-Dec-06 19:33S 33°57' W 058°47'10 9.7
2014-Dec-06 18:33S 34°02' W 058°38'1010.2
2014-Dec-06 17:33S 34°00' W 058°26'58905860.4
2014-Dec-06 16:33N 51°39' W 009°54'58925926.5
2014-Dec-06 15:33S 34°12' W 058°08'1010.2
2014-Dec-06 14:33S 34°20' W 058°01'1010.3
2014-Dec-06 13:33S 34°30' W 057°57'1111.3
2014-Dec-06 12:33S 34°41' W 057°57'9 9.4
2014-Dec-06 11:33S 34°44' W 057°46'1212.3
2014-Dec-06 10:33S 34°47' W 057°31'1313.0
2014-Dec-06 09:33S 34°54' W 057°18'1212.5
2014-Dec-06 08:33S 35°04' W 057°08'1211.8
2014-Dec-06 07:33S 35°10' W 056°56'1413.7
2014-Dec-06 06:33S 35°10' W 056°39'1312.9
2014-Dec-06 05:33S 35°10' W 056°24'1312.8
2014-Dec-06 04:33S 35°08' W 056°08'9 8.3
2014-Dec-06 03:26S 34°60' W 056°02'1112.7
2014-Dec-06 02:33S 35°04' W 055°49'6 2.7
2014-Dec-06 00:27S 35°06' W 055°43'0 0.0
2014-Dec-05 20:12S 35°06' W 055°43'0 0.0
2014-Dec-05 10:24S 35°06' W 055°43'0 0.0
2014-Dec-05 09:33S 35°06' W 055°43'0 0.1
2014-Dec-05 08:33S 35°06' W 055°43'0 0.0
2014-Dec-05 07:33S 35°06' W 055°43'  
Track history (hours):
 
Tides and Currents Weather Stations Pressure Air Temp Water Temp Dewpoint Dewpoint Depression Visibility Wind Speed Wind Dir Waves Ship Positions

Sichem Hawk

Last reported at 2014-Dec-10 07:33 UTC. Time now 2014-Dec-22 13:29 UTC.
Position N 51°39' W 009°54'.
Warning: this ship's position is 12 days out of date.

Length 170 m; draft 7.9 m.

Type: Ship. MMSI: 249445000.

Date/timePositionNaut miles runAvg speedWind from/ knotsBaromVisibWave heightAir tempDewpointWater temp
2014-Dec-10 07:33N 51°39' W 009°54'0 0.0
2014-Dec-10 06:30N 51°39' W 009°54'0 0.0
2014-Dec-10 05:33N 51°39' W 009°54'0 0.0
2014-Dec-10 04:33N 51°39' W 009°54'0 0.0
2014-Dec-10 03:33N 51°39' W 009°54'0 0.0
2014-Dec-10 02:33N 51°39' W 009°54'0 0.0
2014-Dec-10 01:33N 51°39' W 009°54'0 0.0
2014-Dec-10 00:33N 51°39' W 009°54'0 0.0
2014-Dec-09 23:33N 51°39' W 009°54'0 0.0
2014-Dec-09 22:27N 51°39' W 009°54'0 0.0
2014-Dec-09 21:06N 51°39' W 009°54'0 0.0
2014-Dec-09 17:24N 51°39' W 009°54'2 1.7
2014-Dec-09 16:32N 51°38' W 009°55'8 8.6
2014-Dec-09 15:34N 51°34' W 010°07'5892209.0
2014-Dec-08 11:22S 33°07' W 060°30'0 0.0
2014-Dec-08 09:22S 33°07' W 060°30'0 0.0
2014-Dec-08 08:16S 33°07' W 060°30'0 0.2
2014-Dec-08 07:28S 33°07' W 060°30'0 0.3
2014-Dec-08 06:13S 33°07' W 060°31'0 0.0
2014-Dec-08 05:22S 33°07' W 060°31'0 0.0
2014-Dec-08 04:31S 33°07' W 060°31'0 0.0
2014-Dec-08 03:13S 33°07' W 060°31'0 0.0
2014-Dec-08 02:16S 33°07' W 060°31'50 2.1
2014-Dec-07 02:31S 33°37' W 059°43'7 7.5
2014-Dec-07 01:33S 33°41' W 059°35'8 6.6
2014-Dec-07 00:21S 33°44' W 059°26'911.2
2014-Dec-06 23:33S 33°43' W 059°15'7 6.6
2014-Dec-06 22:32S 33°50' W 059°13'7 7.5
2014-Dec-06 21:33S 33°54' W 059°06'9 9.1
2014-Dec-06 20:33S 33°53' W 058°55'7 7.2
2014-Dec-06 19:33S 33°57' W 058°47'10 9.7
2014-Dec-06 18:33S 34°02' W 058°38'1010.2
2014-Dec-06 17:33S 34°00' W 058°26'58905860.4
2014-Dec-06 16:33N 51°39' W 009°54'58925926.5
2014-Dec-06 15:33S 34°12' W 058°08'1010.2
2014-Dec-06 14:33S 34°20' W 058°01'1010.3
2014-Dec-06 13:33S 34°30' W 057°57'1111.3
2014-Dec-06 12:33S 34°41' W 057°57'9 9.4
2014-Dec-06 11:33S 34°44' W 057°46'1212.3
2014-Dec-06 10:33S 34°47' W 057°31'1313.0
2014-Dec-06 09:33S 34°54' W 057°18'1212.5
2014-Dec-06 08:33S 35°04' W 057°08'1211.8
2014-Dec-06 07:33S 35°10' W 056°56'1413.7
2014-Dec-06 06:33S 35°10' W 056°39'1312.9
2014-Dec-06 05:33S 35°10' W 056°24'1312.8
2014-Dec-06 04:33S 35°08' W 056°08'9 8.3
2014-Dec-06 03:26S 34°60' W 056°02'1112.7
2014-Dec-06 02:33S 35°04' W 055°49'6 2.7
2014-Dec-06 00:27S 35°06' W 055°43'0 0.0
2014-Dec-05 20:12S 35°06' W 055°43'0 0.0
2014-Dec-05 10:24S 35°06' W 055°43'0 0.0
2014-Dec-05 09:33S 35°06' W 055°43'0 0.1
2014-Dec-05 08:33S 35°06' W 055°43'0 0.0
2014-Dec-05 07:33S 35°06' W 055°43'  

Dump ship's entire track history